sensor_id;sensor_type;location;lat;lon;timestamp;P1;durP1;ratioP1;P2;durP2;ratioP2
42666;SDS011;28280;49.646;14.130;2023-02-01T00:03:53;4.60;;;1.98;;
42666;SDS011;28280;49.646;14.130;2023-02-01T00:09:25;3.30;;;2.10;;
42666;SDS011;28280;49.646;14.130;2023-02-01T00:14:56;2.40;;;2.00;;
42666;SDS011;28280;49.646;14.130;2023-02-01T00:20:27;3.53;;;2.13;;
42666;SDS011;28280;49.646;14.130;2023-02-01T00:25:59;2.83;;;1.90;;
42666;SDS011;28280;49.646;14.130;2023-02-01T00:31:34;2.90;;;1.83;;
42666;SDS011;28280;49.646;14.130;2023-02-01T00:37:05;2.65;;;1.85;;
42666;SDS011;28280;49.646;14.130;2023-02-01T00:42:36;4.28;;;2.60;;
42666;SDS011;28280;49.646;14.130;2023-02-01T00:48:09;3.47;;;2.30;;
42666;SDS011;28280;49.646;14.130;2023-02-01T00:53:40;3.17;;;2.15;;
42666;SDS011;28280;49.646;14.130;2023-02-01T00:59:12;4.38;;;2.42;;
42666;SDS011;28280;49.646;14.130;2023-02-01T01:04:44;3.38;;;2.40;;
42666;SDS011;28280;49.646;14.130;2023-02-01T01:10:15;4.03;;;2.28;;
42666;SDS011;28280;49.646;14.130;2023-02-01T01:15:47;4.13;;;2.15;;
42666;SDS011;28280;49.646;14.130;2023-02-01T01:21:18;4.13;;;1.90;;
42666;SDS011;28280;49.646;14.130;2023-02-01T01:26:50;5.35;;;2.50;;
42666;SDS011;28280;49.646;14.130;2023-02-01T01:32:21;3.97;;;2.20;;
42666;SDS011;28280;49.646;14.130;2023-02-01T01:37:52;3.60;;;2.10;;
42666;SDS011;28280;49.646;14.130;2023-02-01T01:43:23;3.72;;;2.00;;
42666;SDS011;28280;49.646;14.130;2023-02-01T01:49:09;3.42;;;2.10;;
42666;SDS011;28280;49.646;14.130;2023-02-01T01:54:47;2.55;;;2.00;;
42666;SDS011;28280;49.646;14.130;2023-02-01T02:00:20;5.63;;;2.45;;
42666;SDS011;28280;49.646;14.130;2023-02-01T02:05:57;3.85;;;2.40;;
42666;SDS011;28280;49.646;14.130;2023-02-01T02:11:29;3.08;;;2.30;;
42666;SDS011;28280;49.646;14.130;2023-02-01T02:34:34;5.20;;;2.35;;
42666;SDS011;28280;49.646;14.130;2023-02-01T02:52:17;3.20;;;2.00;;
42666;SDS011;28280;49.646;14.130;2023-02-01T02:58:07;4.38;;;2.25;;
42666;SDS011;28280;49.646;14.130;2023-02-01T03:03:58;4.97;;;2.10;;
42666;SDS011;28280;49.646;14.130;2023-02-01T03:09:43;3.92;;;1.88;;
42666;SDS011;28280;49.646;14.130;2023-02-01T03:15:15;4.80;;;2.03;;
42666;SDS011;28280;49.646;14.130;2023-02-01T03:20:49;3.88;;;1.80;;
42666;SDS011;28280;49.646;14.130;2023-02-01T03:26:21;2.80;;;1.90;;
42666;SDS011;28280;49.646;14.130;2023-02-01T03:31:53;3.85;;;1.75;;
42666;SDS011;28280;49.646;14.130;2023-02-01T03:37:25;4.82;;;1.92;;
42666;SDS011;28280;49.646;14.130;2023-02-01T03:42:57;2.40;;;1.67;;
42666;SDS011;28280;49.646;14.130;2023-02-01T03:48:31;3.87;;;1.67;;
42666;SDS011;28280;49.646;14.130;2023-02-01T03:54:03;4.55;;;1.60;;
42666;SDS011;28280;49.646;14.130;2023-02-01T03:59:40;2.90;;;1.73;;
42666;SDS011;28280;49.646;14.130;2023-02-01T04:05:12;2.28;;;1.40;;
42666;SDS011;28280;49.646;14.130;2023-02-01T04:10:51;3.25;;;1.75;;
42666;SDS011;28280;49.646;14.130;2023-02-01T04:16:22;2.20;;;1.80;;
42666;SDS011;28280;49.646;14.130;2023-02-01T04:21:53;2.33;;;1.58;;
42666;SDS011;28280;49.646;14.130;2023-02-01T04:27:25;2.63;;;1.70;;
42666;SDS011;28280;49.646;14.130;2023-02-01T04:32:56;3.05;;;1.63;;
42666;SDS011;28280;49.646;14.130;2023-02-01T04:38:27;2.95;;;1.40;;
42666;SDS011;28280;49.646;14.130;2023-02-01T04:44:00;2.42;;;1.65;;
42666;SDS011;28280;49.646;14.130;2023-02-01T04:49:31;3.00;;;1.60;;
42666;SDS011;28280;49.646;14.130;2023-02-01T04:55:03;1.95;;;1.30;;
42666;SDS011;28280;49.646;14.130;2023-02-01T05:00:34;2.33;;;1.50;;
42666;SDS011;28280;49.646;14.130;2023-02-01T05:06:06;2.95;;;1.52;;
42666;SDS011;28280;49.646;14.130;2023-02-01T05:11:37;3.00;;;1.40;;
42666;SDS011;28280;49.646;14.130;2023-02-01T05:17:27;2.00;;;1.20;;
42666;SDS011;28280;49.646;14.130;2023-02-01T05:22:58;2.08;;;1.40;;
42666;SDS011;28280;49.646;14.130;2023-02-01T05:28:30;3.15;;;1.52;;
42666;SDS011;28280;49.646;14.130;2023-02-01T05:34:01;2.35;;;1.70;;
42666;SDS011;28280;49.646;14.130;2023-02-01T05:39:32;2.42;;;1.50;;
42666;SDS011;28280;49.646;14.130;2023-02-01T05:45:04;2.67;;;1.40;;
42666;SDS011;28280;49.646;14.130;2023-02-01T05:50:38;2.97;;;1.52;;
42666;SDS011;28280;49.646;14.130;2023-02-01T05:56:11;2.72;;;1.40;;
42666;SDS011;28280;49.646;14.130;2023-02-01T06:01:43;1.90;;;1.38;;
42666;SDS011;28280;49.646;14.130;2023-02-01T06:07:14;3.35;;;1.30;;
42666;SDS011;28280;49.646;14.130;2023-02-01T06:12:45;2.83;;;1.58;;
42666;SDS011;28280;49.646;14.130;2023-02-01T06:18:17;3.13;;;1.75;;
42666;SDS011;28280;49.646;14.130;2023-02-01T06:23:51;2.03;;;1.48;;
42666;SDS011;28280;49.646;14.130;2023-02-01T06:29:23;4.57;;;2.13;;
42666;SDS011;28280;49.646;14.130;2023-02-01T06:34:54;5.20;;;1.77;;
42666;SDS011;28280;49.646;14.130;2023-02-01T06:40:26;2.65;;;1.58;;
42666;SDS011;28280;49.646;14.130;2023-02-01T06:46:01;4.10;;;1.77;;
42666;SDS011;28280;49.646;14.130;2023-02-01T06:51:34;2.95;;;1.48;;
42666;SDS011;28280;49.646;14.130;2023-02-01T06:57:05;5.53;;;1.85;;
42666;SDS011;28280;49.646;14.130;2023-02-01T07:02:36;4.82;;;1.88;;
42666;SDS011;28280;49.646;14.130;2023-02-01T07:08:09;3.30;;;1.85;;
42666;SDS011;28280;49.646;14.130;2023-02-01T07:13:41;5.25;;;2.17;;
42666;SDS011;28280;49.646;14.130;2023-02-01T07:19:12;4.13;;;2.08;;
42666;SDS011;28280;49.646;14.130;2023-02-01T07:24:43;3.55;;;1.58;;
42666;SDS011;28280;49.646;14.130;2023-02-01T07:30:14;4.05;;;2.25;;
42666;SDS011;28280;49.646;14.130;2023-02-01T07:35:46;3.17;;;1.98;;
42666;SDS011;28280;49.646;14.130;2023-02-01T07:41:18;3.10;;;1.80;;
42666;SDS011;28280;49.646;14.130;2023-02-01T07:46:49;4.10;;;1.85;;
42666;SDS011;28280;49.646;14.130;2023-02-01T07:52:20;3.38;;;1.58;;
42666;SDS011;28280;49.646;14.130;2023-02-01T07:57:52;2.63;;;1.85;;
42666;SDS011;28280;49.646;14.130;2023-02-01T08:03:23;4.50;;;1.67;;
42666;SDS011;28280;49.646;14.130;2023-02-01T08:08:54;3.13;;;1.65;;
42666;SDS011;28280;49.646;14.130;2023-02-01T08:14:26;4.97;;;2.22;;
42666;SDS011;28280;49.646;14.130;2023-02-01T08:19:57;3.55;;;1.48;;
42666;SDS011;28280;49.646;14.130;2023-02-01T08:25:29;2.88;;;1.65;;
42666;SDS011;28280;49.646;14.130;2023-02-01T08:31:03;2.47;;;1.42;;
42666;SDS011;28280;49.646;14.130;2023-02-01T08:36:38;2.20;;;1.40;;
42666;SDS011;28280;49.646;14.130;2023-02-01T08:42:10;3.30;;;1.48;;
42666;SDS011;28280;49.646;14.130;2023-02-01T08:48:00;5.25;;;1.50;;
42666;SDS011;28280;49.646;14.130;2023-02-01T08:53:31;4.50;;;1.60;;
42666;SDS011;28280;49.646;14.130;2023-02-01T08:59:02;3.08;;;1.60;;
42666;SDS011;28280;49.646;14.130;2023-02-01T09:04:34;3.20;;;1.50;;
42666;SDS011;28280;49.646;14.130;2023-02-01T09:10:05;2.00;;;1.40;;
42666;SDS011;28280;49.646;14.130;2023-02-01T09:15:37;2.78;;;1.40;;
42666;SDS011;28280;49.646;14.130;2023-02-01T09:21:09;2.78;;;1.40;;
42666;SDS011;28280;49.646;14.130;2023-02-01T09:26:40;3.40;;;1.55;;
42666;SDS011;28280;49.646;14.130;2023-02-01T09:32:11;4.25;;;1.42;;
42666;SDS011;28280;49.646;14.130;2023-02-01T09:37:45;2.78;;;1.50;;
42666;SDS011;28280;49.646;14.130;2023-02-01T09:43:18;4.65;;;1.77;;
42666;SDS011;28280;49.646;14.130;2023-02-01T09:49:21;4.18;;;1.40;;
42666;SDS011;28280;49.646;14.130;2023-02-01T09:55:01;3.33;;;1.50;;
42666;SDS011;28280;49.646;14.130;2023-02-01T10:00:49;4.38;;;1.60;;
42666;SDS011;28280;49.646;14.130;2023-02-01T10:12:12;2.67;;;1.40;;
42666;SDS011;28280;49.646;14.130;2023-02-01T10:30:04;7.38;;;1.73;;
42666;SDS011;28280;49.646;14.130;2023-02-01T10:35:44;7.35;;;1.80;;
42666;SDS011;28280;49.646;14.130;2023-02-01T10:41:17;6.10;;;2.05;;
42666;SDS011;28280;49.646;14.130;2023-02-01T10:46:51;5.32;;;1.70;;
42666;SDS011;28280;49.646;14.130;2023-02-01T10:57:55;4.55;;;1.90;;
42666;SDS011;28280;49.646;14.130;2023-02-01T11:14:39;4.40;;;1.70;;
42666;SDS011;28280;49.646;14.130;2023-02-01T11:20:15;6.20;;;1.83;;
42666;SDS011;28280;49.646;14.130;2023-02-01T11:25:58;6.88;;;2.03;;
42666;SDS011;28280;49.646;14.130;2023-02-01T11:31:32;6.90;;;1.60;;
42666;SDS011;28280;49.646;14.130;2023-02-01T11:37:05;3.75;;;1.50;;
42666;SDS011;28280;49.646;14.130;2023-02-01T11:43:00;4.55;;;1.42;;
42666;SDS011;28280;49.646;14.130;2023-02-01T11:48:39;3.60;;;1.35;;
42666;SDS011;28280;49.646;14.130;2023-02-01T11:54:17;6.35;;;1.70;;
42666;SDS011;28280;49.646;14.130;2023-02-01T12:46:29;3.83;;;1.60;;
42666;SDS011;28280;49.646;14.130;2023-02-01T12:52:05;3.95;;;1.60;;
42666;SDS011;28280;49.646;14.130;2023-02-01T12:57:42;5.22;;;1.48;;
42666;SDS011;28280;49.646;14.130;2023-02-01T13:14:56;4.70;;;1.30;;
42666;SDS011;28280;49.646;14.130;2023-02-01T13:20:55;4.50;;;1.60;;
42666;SDS011;28280;49.646;14.130;2023-02-01T13:26:30;3.67;;;1.50;;
42666;SDS011;28280;49.646;14.130;2023-02-01T13:43:18;5.68;;;1.52;;
42666;SDS011;28280;49.646;14.130;2023-02-01T13:48:57;4.30;;;1.38;;
42666;SDS011;28280;49.646;14.130;2023-02-01T13:54:35;3.38;;;1.35;;
42666;SDS011;28280;49.646;14.130;2023-02-01T14:00:22;4.38;;;1.60;;
42666;SDS011;28280;49.646;14.130;2023-02-01T14:05:55;3.22;;;1.25;;
42666;SDS011;28280;49.646;14.130;2023-02-01T14:22:59;5.65;;;1.40;;
42666;SDS011;28280;49.646;14.130;2023-02-01T14:28:35;5.93;;;2.53;;
42666;SDS011;28280;49.646;14.130;2023-02-01T14:50:53;5.85;;;1.55;;
42666;SDS011;28280;49.646;14.130;2023-02-01T14:56:24;6.30;;;1.70;;
42666;SDS011;28280;49.646;14.130;2023-02-01T15:01:57;4.60;;;1.38;;
42666;SDS011;28280;49.646;14.130;2023-02-01T15:07:29;5.90;;;1.65;;
42666;SDS011;28280;49.646;14.130;2023-02-01T15:13:00;5.35;;;1.55;;
42666;SDS011;28280;49.646;14.130;2023-02-01T15:18:32;4.93;;;1.65;;
42666;SDS011;28280;49.646;14.130;2023-02-01T15:24:10;3.97;;;1.48;;
42666;SDS011;28280;49.646;14.130;2023-02-01T15:29:42;6.25;;;1.70;;
42666;SDS011;28280;49.646;14.130;2023-02-01T15:41:11;4.03;;;1.45;;
42666;SDS011;28280;49.646;14.130;2023-02-01T15:46:48;3.58;;;1.38;;
42666;SDS011;28280;49.646;14.130;2023-02-01T15:57:52;4.80;;;1.50;;
42666;SDS011;28280;49.646;14.130;2023-02-01T16:09:14;6.10;;;1.65;;
42666;SDS011;28280;49.646;14.130;2023-02-01T16:14:47;5.00;;;1.70;;
42666;SDS011;28280;49.646;14.130;2023-02-01T16:20:19;5.18;;;1.80;;
42666;SDS011;28280;49.646;14.130;2023-02-01T16:25:50;5.40;;;1.73;;
42666;SDS011;28280;49.646;14.130;2023-02-01T16:31:24;4.68;;;1.83;;
42666;SDS011;28280;49.646;14.130;2023-02-01T16:36:57;5.63;;;1.75;;
42666;SDS011;28280;49.646;14.130;2023-02-01T16:42:29;5.28;;;1.95;;
42666;SDS011;28280;49.646;14.130;2023-02-01T16:48:01;3.63;;;1.50;;
42666;SDS011;28280;49.646;14.130;2023-02-01T16:53:35;4.72;;;1.50;;
42666;SDS011;28280;49.646;14.130;2023-02-01T16:59:23;6.13;;;1.73;;
42666;SDS011;28280;49.646;14.130;2023-02-01T17:04:54;4.45;;;1.70;;
42666;SDS011;28280;49.646;14.130;2023-02-01T17:10:26;6.40;;;2.20;;
42666;SDS011;28280;49.646;14.130;2023-02-01T17:16:06;4.45;;;1.65;;
42666;SDS011;28280;49.646;14.130;2023-02-01T17:21:50;5.53;;;1.90;;
42666;SDS011;28280;49.646;14.130;2023-02-01T17:27:24;6.45;;;1.80;;
42666;SDS011;28280;49.646;14.130;2023-02-01T17:32:55;4.75;;;1.85;;
42666;SDS011;28280;49.646;14.130;2023-02-01T17:38:27;6.95;;;1.73;;
42666;SDS011;28280;49.646;14.130;2023-02-01T17:43:58;4.25;;;1.80;;
42666;SDS011;28280;49.646;14.130;2023-02-01T17:49:29;7.55;;;2.55;;
42666;SDS011;28280;49.646;14.130;2023-02-01T17:55:00;6.65;;;1.98;;
42666;SDS011;28280;49.646;14.130;2023-02-01T18:00:33;6.17;;;2.00;;
42666;SDS011;28280;49.646;14.130;2023-02-01T18:11:57;8.63;;;2.63;;
42666;SDS011;28280;49.646;14.130;2023-02-01T18:17:28;5.32;;;1.80;;
42666;SDS011;28280;49.646;14.130;2023-02-01T18:22:59;4.80;;;2.00;;
42666;SDS011;28280;49.646;14.130;2023-02-01T18:28:31;8.93;;;2.00;;
42666;SDS011;28280;49.646;14.130;2023-02-01T18:34:02;5.18;;;1.95;;
42666;SDS011;28280;49.646;14.130;2023-02-01T18:39:34;5.20;;;1.92;;
42666;SDS011;28280;49.646;14.130;2023-02-01T18:45:05;8.35;;;1.83;;
42666;SDS011;28280;49.646;14.130;2023-02-01T18:50:41;5.40;;;2.13;;
42666;SDS011;28280;49.646;14.130;2023-02-01T18:56:13;4.88;;;1.88;;
42666;SDS011;28280;49.646;14.130;2023-02-01T19:01:45;4.78;;;2.08;;
42666;SDS011;28280;49.646;14.130;2023-02-01T19:07:16;4.60;;;2.15;;
42666;SDS011;28280;49.646;14.130;2023-02-01T19:12:48;6.18;;;2.50;;
42666;SDS011;28280;49.646;14.130;2023-02-01T19:18:20;5.90;;;2.10;;
42666;SDS011;28280;49.646;14.130;2023-02-01T19:23:51;4.43;;;2.03;;
42666;SDS011;28280;49.646;14.130;2023-02-01T19:29:23;7.05;;;2.00;;
42666;SDS011;28280;49.646;14.130;2023-02-01T19:34:54;5.18;;;1.73;;
42666;SDS011;28280;49.646;14.130;2023-02-01T19:40:25;4.20;;;1.80;;
42666;SDS011;28280;49.646;14.130;2023-02-01T19:45:57;6.68;;;1.90;;
42666;SDS011;28280;49.646;14.130;2023-02-01T19:51:29;5.22;;;2.17;;
42666;SDS011;28280;49.646;14.130;2023-02-01T19:57:00;4.65;;;1.73;;
42666;SDS011;28280;49.646;14.130;2023-02-01T20:02:31;4.28;;;1.90;;
42666;SDS011;28280;49.646;14.130;2023-02-01T20:08:03;5.22;;;1.60;;
42666;SDS011;28280;49.646;14.130;2023-02-01T20:19:20;4.53;;;1.60;;
42666;SDS011;28280;49.646;14.130;2023-02-01T20:24:51;3.95;;;1.65;;
42666;SDS011;28280;49.646;14.130;2023-02-01T20:30:22;4.82;;;1.80;;
42666;SDS011;28280;49.646;14.130;2023-02-01T20:35:54;4.50;;;1.63;;
42666;SDS011;28280;49.646;14.130;2023-02-01T20:41:26;4.30;;;1.77;;
42666;SDS011;28280;49.646;14.130;2023-02-01T20:46:57;2.70;;;1.58;;
42666;SDS011;28280;49.646;14.130;2023-02-01T20:52:29;2.50;;;1.17;;
42666;SDS011;28280;49.646;14.130;2023-02-01T20:58:00;3.15;;;1.17;;
42666;SDS011;28280;49.646;14.130;2023-02-01T21:03:31;2.50;;;1.17;;
42666;SDS011;28280;49.646;14.130;2023-02-01T21:09:03;3.10;;;1.30;;
42666;SDS011;28280;49.646;14.130;2023-02-01T21:14:34;3.30;;;1.17;;
42666;SDS011;28280;49.646;14.130;2023-02-01T21:20:05;1.88;;;1.10;;
42666;SDS011;28280;49.646;14.130;2023-02-01T21:25:38;3.08;;;1.23;;
42666;SDS011;28280;49.646;14.130;2023-02-01T21:31:11;6.00;;;1.30;;
42666;SDS011;28280;49.646;14.130;2023-02-01T21:36:43;1.98;;;1.10;;
42666;SDS011;28280;49.646;14.130;2023-02-01T21:42:15;2.95;;;1.27;;
42666;SDS011;28280;49.646;14.130;2023-02-01T21:47:48;1.98;;;1.00;;
42666;SDS011;28280;49.646;14.130;2023-02-01T21:53:19;1.67;;;1.00;;
42666;SDS011;28280;49.646;14.130;2023-02-01T21:58:50;2.08;;;1.15;;
42666;SDS011;28280;49.646;14.130;2023-02-01T22:04:21;2.83;;;1.02;;
42666;SDS011;28280;49.646;14.130;2023-02-01T22:09:52;4.05;;;1.35;;
42666;SDS011;28280;49.646;14.130;2023-02-01T22:15:24;3.28;;;1.00;;
42666;SDS011;28280;49.646;14.130;2023-02-01T22:20:58;2.55;;;1.13;;
42666;SDS011;28280;49.646;14.130;2023-02-01T22:26:30;1.77;;;0.93;;
42666;SDS011;28280;49.646;14.130;2023-02-01T22:32:01;3.47;;;1.10;;
42666;SDS011;28280;49.646;14.130;2023-02-01T22:37:32;2.25;;;0.88;;
42666;SDS011;28280;49.646;14.130;2023-02-01T22:43:04;4.35;;;1.65;;
42666;SDS011;28280;49.646;14.130;2023-02-01T22:48:36;3.05;;;1.30;;
42666;SDS011;28280;49.646;14.130;2023-02-01T22:54:13;2.20;;;1.20;;
42666;SDS011;28280;49.646;14.130;2023-02-01T22:59:47;3.38;;;1.30;;
42666;SDS011;28280;49.646;14.130;2023-02-01T23:05:18;3.40;;;1.20;;
42666;SDS011;28280;49.646;14.130;2023-02-01T23:10:55;2.30;;;1.10;;
42666;SDS011;28280;49.646;14.130;2023-02-01T23:16:27;2.35;;;0.95;;
42666;SDS011;28280;49.646;14.130;2023-02-01T23:21:58;2.65;;;0.95;;
42666;SDS011;28280;49.646;14.130;2023-02-01T23:27:30;2.95;;;1.30;;
42666;SDS011;28280;49.646;14.130;2023-02-01T23:33:01;3.13;;;1.02;;
42666;SDS011;28280;49.646;14.130;2023-02-01T23:38:32;1.83;;;0.98;;
42666;SDS011;28280;49.646;14.130;2023-02-01T23:44:04;3.35;;;1.20;;
42666;SDS011;28280;49.646;14.130;2023-02-01T23:49:35;3.20;;;0.98;;
42666;SDS011;28280;49.646;14.130;2023-02-01T23:55:07;2.80;;;1.35;;
